sensor_id;sensor_type;location;lat;lon;timestamp;P1;durP1;ratioP1;P2;durP2;ratioP2
7479;SDS011;3781;42.272;22.658;2023-06-26T00:00:51;1.53;;;1.27;;
7479;SDS011;3781;42.272;22.658;2023-06-26T00:03:19;4.13;;;2.30;;
7479;SDS011;3781;42.272;22.658;2023-06-26T00:05:46;2.53;;;2.43;;
7479;SDS011;3781;42.272;22.658;2023-06-26T00:08:14;1.70;;;1.60;;
7479;SDS011;3781;42.272;22.658;2023-06-26T00:10:41;1.53;;;1.43;;
7479;SDS011;3781;42.272;22.658;2023-06-26T00:13:08;3.90;;;1.63;;
7479;SDS011;3781;42.272;22.658;2023-06-26T00:15:37;2.83;;;1.73;;
7479;SDS011;3781;42.272;22.658;2023-06-26T00:18:04;2.07;;;1.80;;
7479;SDS011;3781;42.272;22.658;2023-06-26T00:20:31;2.20;;;1.40;;
7479;SDS011;3781;42.272;22.658;2023-06-26T00:22:59;1.93;;;1.70;;
7479;SDS011;3781;42.272;22.658;2023-06-26T00:25:27;1.73;;;1.43;;
7479;SDS011;3781;42.272;22.658;2023-06-26T00:27:54;3.40;;;2.10;;
7479;SDS011;3781;42.272;22.658;2023-06-26T00:30:20;2.97;;;2.67;;
7479;SDS011;3781;42.272;22.658;2023-06-26T00:32:47;2.07;;;1.87;;
7479;SDS011;3781;42.272;22.658;2023-06-26T00:35:14;2.80;;;2.10;;
7479;SDS011;3781;42.272;22.658;2023-06-26T00:37:41;2.83;;;1.17;;
7479;SDS011;3781;42.272;22.658;2023-06-26T00:40:08;3.00;;;2.73;;
7479;SDS011;3781;42.272;22.658;2023-06-26T00:42:37;2.43;;;2.23;;
7479;SDS011;3781;42.272;22.658;2023-06-26T00:45:04;2.93;;;2.13;;
7479;SDS011;3781;42.272;22.658;2023-06-26T00:47:31;1.63;;;1.53;;
7479;SDS011;3781;42.272;22.658;2023-06-26T00:49:58;3.67;;;2.00;;
7479;SDS011;3781;42.272;22.658;2023-06-26T00:52:25;2.67;;;2.47;;
7479;SDS011;3781;42.272;22.658;2023-06-26T00:54:52;4.03;;;1.57;;
7479;SDS011;3781;42.272;22.658;2023-06-26T00:57:18;2.37;;;1.50;;
7479;SDS011;3781;42.272;22.658;2023-06-26T00:59:47;3.03;;;2.77;;
7479;SDS011;3781;42.272;22.658;2023-06-26T01:02:14;5.07;;;2.47;;
7479;SDS011;3781;42.272;22.658;2023-06-26T01:04:42;2.03;;;1.93;;
7479;SDS011;3781;42.272;22.658;2023-06-26T01:07:12;3.47;;;2.57;;
7479;SDS011;3781;42.272;22.658;2023-06-26T01:09:41;5.37;;;2.37;;
7479;SDS011;3781;42.272;22.658;2023-06-26T01:12:08;5.20;;;2.70;;
7479;SDS011;3781;42.272;22.658;2023-06-26T01:14:35;2.53;;;1.83;;
7479;SDS011;3781;42.272;22.658;2023-06-26T01:17:04;2.90;;;2.37;;
7479;SDS011;3781;42.272;22.658;2023-06-26T01:19:31;1.73;;;1.63;;
7479;SDS011;3781;42.272;22.658;2023-06-26T01:22:00;2.13;;;1.90;;
7479;SDS011;3781;42.272;22.658;2023-06-26T01:24:39;4.33;;;1.87;;
7479;SDS011;3781;42.272;22.658;2023-06-26T01:27:13;2.30;;;2.00;;
7479;SDS011;3781;42.272;22.658;2023-06-26T01:29:40;3.17;;;2.33;;
7479;SDS011;3781;42.272;22.658;2023-06-26T01:32:09;1.63;;;1.53;;
7479;SDS011;3781;42.272;22.658;2023-06-26T01:34:36;2.80;;;1.63;;
7479;SDS011;3781;42.272;22.658;2023-06-26T01:37:03;1.33;;;1.07;;
7479;SDS011;3781;42.272;22.658;2023-06-26T01:39:30;1.77;;;1.57;;
7479;SDS011;3781;42.272;22.658;2023-06-26T01:41:57;4.43;;;2.27;;
7479;SDS011;3781;42.272;22.658;2023-06-26T01:44:28;2.30;;;2.10;;
7479;SDS011;3781;42.272;22.658;2023-06-26T01:47:00;3.53;;;1.90;;
7479;SDS011;3781;42.272;22.658;2023-06-26T01:49:31;3.07;;;2.87;;
7479;SDS011;3781;42.272;22.658;2023-06-26T01:52:18;3.73;;;2.57;;
7479;SDS011;3781;42.272;22.658;2023-06-26T01:54:58;2.37;;;1.93;;
7479;SDS011;3781;42.272;22.658;2023-06-26T01:57:29;2.30;;;2.10;;
7479;SDS011;3781;42.272;22.658;2023-06-26T01:59:58;1.60;;;1.50;;
7479;SDS011;3781;42.272;22.658;2023-06-26T02:02:27;3.13;;;1.90;;
7479;SDS011;3781;42.272;22.658;2023-06-26T02:04:54;4.07;;;2.20;;
7479;SDS011;3781;42.272;22.658;2023-06-26T02:07:21;3.27;;;2.07;;
7479;SDS011;3781;42.272;22.658;2023-06-26T02:09:48;4.53;;;1.97;;
7479;SDS011;3781;42.272;22.658;2023-06-26T02:12:15;2.47;;;2.27;;
7479;SDS011;3781;42.272;22.658;2023-06-26T02:14:41;1.73;;;1.37;;
7479;SDS011;3781;42.272;22.658;2023-06-26T02:17:10;3.23;;;2.50;;
7479;SDS011;3781;42.272;22.658;2023-06-26T02:19:36;2.13;;;1.93;;
7479;SDS011;3781;42.272;22.658;2023-06-26T02:22:12;3.67;;;1.80;;
7479;SDS011;3781;42.272;22.658;2023-06-26T02:24:39;4.03;;;2.47;;
7479;SDS011;3781;42.272;22.658;2023-06-26T02:27:06;4.30;;;2.50;;
7479;SDS011;3781;42.272;22.658;2023-06-26T02:29:33;3.83;;;2.33;;
7479;SDS011;3781;42.272;22.658;2023-06-26T02:31:59;4.30;;;1.87;;
7479;SDS011;3781;42.272;22.658;2023-06-26T02:34:28;2.87;;;1.90;;
7479;SDS011;3781;42.272;22.658;2023-06-26T02:36:55;3.83;;;2.10;;
7479;SDS011;3781;42.272;22.658;2023-06-26T02:39:23;5.67;;;2.70;;
7479;SDS011;3781;42.272;22.658;2023-06-26T02:41:50;2.80;;;2.27;;
7479;SDS011;3781;42.272;22.658;2023-06-26T02:44:17;6.60;;;2.13;;
7479;SDS011;3781;42.272;22.658;2023-06-26T02:46:44;2.67;;;2.20;;
7479;SDS011;3781;42.272;22.658;2023-06-26T02:49:11;3.13;;;2.83;;
7479;SDS011;3781;42.272;22.658;2023-06-26T02:51:39;2.67;;;2.47;;
7479;SDS011;3781;42.272;22.658;2023-06-26T02:54:06;2.63;;;1.57;;
7479;SDS011;3781;42.272;22.658;2023-06-26T02:56:32;4.00;;;1.77;;
7479;SDS011;3781;42.272;22.658;2023-06-26T02:58:59;4.87;;;1.77;;
7479;SDS011;3781;42.272;22.658;2023-06-26T03:01:26;2.47;;;2.20;;
7479;SDS011;3781;42.272;22.658;2023-06-26T03:03:53;3.93;;;1.70;;
7479;SDS011;3781;42.272;22.658;2023-06-26T03:06:20;2.63;;;2.20;;
7479;SDS011;3781;42.272;22.658;2023-06-26T03:08:48;2.97;;;1.67;;
7479;SDS011;3781;42.272;22.658;2023-06-26T03:11:14;2.53;;;2.33;;
7479;SDS011;3781;42.272;22.658;2023-06-26T03:13:41;3.03;;;2.33;;
7479;SDS011;3781;42.272;22.658;2023-06-26T03:16:08;2.23;;;2.07;;
7479;SDS011;3781;42.272;22.658;2023-06-26T03:18:35;2.00;;;1.80;;
7479;SDS011;3781;42.272;22.658;2023-06-26T03:21:01;2.47;;;1.80;;
7479;SDS011;3781;42.272;22.658;2023-06-26T03:23:28;4.00;;;2.77;;
7479;SDS011;3781;42.272;22.658;2023-06-26T03:25:56;2.40;;;2.20;;
7479;SDS011;3781;42.272;22.658;2023-06-26T03:28:23;1.93;;;1.40;;
7479;SDS011;3781;42.272;22.658;2023-06-26T03:30:50;1.47;;;1.30;;
7479;SDS011;3781;42.272;22.658;2023-06-26T03:33:17;1.60;;;1.43;;
7479;SDS011;3781;42.272;22.658;2023-06-26T03:35:43;2.83;;;2.63;;
7479;SDS011;3781;42.272;22.658;2023-06-26T03:38:10;4.43;;;2.67;;
7479;SDS011;3781;42.272;22.658;2023-06-26T03:40:37;4.33;;;2.07;;
7479;SDS011;3781;42.272;22.658;2023-06-26T03:43:05;1.13;;;0.97;;
7479;SDS011;3781;42.272;22.658;2023-06-26T03:45:32;3.20;;;2.07;;
7479;SDS011;3781;42.272;22.658;2023-06-26T03:47:58;2.27;;;2.07;;
7479;SDS011;3781;42.272;22.658;2023-06-26T03:50:25;2.47;;;2.27;;
7479;SDS011;3781;42.272;22.658;2023-06-26T03:52:52;3.03;;;2.10;;
7479;SDS011;3781;42.272;22.658;2023-06-26T03:55:19;3.03;;;1.67;;
7479;SDS011;3781;42.272;22.658;2023-06-26T03:57:49;2.43;;;1.83;;
7479;SDS011;3781;42.272;22.658;2023-06-26T04:00:17;4.10;;;2.90;;
7479;SDS011;3781;42.272;22.658;2023-06-26T04:02:44;2.80;;;2.60;;
7479;SDS011;3781;42.272;22.658;2023-06-26T04:05:11;6.07;;;2.77;;
7479;SDS011;3781;42.272;22.658;2023-06-26T04:07:37;5.17;;;3.10;;
7479;SDS011;3781;42.272;22.658;2023-06-26T04:10:05;2.13;;;1.40;;
7479;SDS011;3781;42.272;22.658;2023-06-26T04:12:33;1.90;;;1.80;;
7479;SDS011;3781;42.272;22.658;2023-06-26T04:14:59;2.43;;;1.97;;
7479;SDS011;3781;42.272;22.658;2023-06-26T04:17:27;4.07;;;2.40;;
7479;SDS011;3781;42.272;22.658;2023-06-26T04:19:54;4.60;;;3.20;;
7479;SDS011;3781;42.272;22.658;2023-06-26T04:22:21;3.40;;;2.50;;
7479;SDS011;3781;42.272;22.658;2023-06-26T04:24:48;4.57;;;2.90;;
7479;SDS011;3781;42.272;22.658;2023-06-26T04:27:14;3.97;;;2.73;;
7479;SDS011;3781;42.272;22.658;2023-06-26T04:29:41;4.63;;;2.87;;
7479;SDS011;3781;42.272;22.658;2023-06-26T04:32:08;3.77;;;1.93;;
7479;SDS011;3781;42.272;22.658;2023-06-26T04:34:36;3.30;;;3.00;;
7479;SDS011;3781;42.272;22.658;2023-06-26T04:37:06;3.53;;;3.10;;
7479;SDS011;3781;42.272;22.658;2023-06-26T04:39:34;3.93;;;3.00;;
7479;SDS011;3781;42.272;22.658;2023-06-26T04:42:02;1.80;;;1.70;;
7479;SDS011;3781;42.272;22.658;2023-06-26T04:44:31;3.30;;;3.00;;
7479;SDS011;3781;42.272;22.658;2023-06-26T04:46:58;3.70;;;2.47;;
7479;SDS011;3781;42.272;22.658;2023-06-26T04:49:25;5.13;;;3.37;;
7479;SDS011;3781;42.272;22.658;2023-06-26T04:51:54;3.87;;;2.83;;
7479;SDS011;3781;42.272;22.658;2023-06-26T04:54:21;3.03;;;2.70;;
7479;SDS011;3781;42.272;22.658;2023-06-26T04:56:48;4.27;;;3.17;;
7479;SDS011;3781;42.272;22.658;2023-06-26T04:59:15;3.77;;;2.63;;
7479;SDS011;3781;42.272;22.658;2023-06-26T05:01:41;3.63;;;2.77;;
7479;SDS011;3781;42.272;22.658;2023-06-26T05:04:13;4.17;;;2.73;;
7479;SDS011;3781;42.272;22.658;2023-06-26T05:06:39;5.60;;;4.20;;
7479;SDS011;3781;42.272;22.658;2023-06-26T05:09:07;5.13;;;3.30;;
7479;SDS011;3781;42.272;22.658;2023-06-26T05:11:36;4.37;;;3.97;;
7479;SDS011;3781;42.272;22.658;2023-06-26T05:14:02;3.70;;;2.97;;
7479;SDS011;3781;42.272;22.658;2023-06-26T05:16:32;5.27;;;3.77;;
7479;SDS011;3781;42.272;22.658;2023-06-26T05:18:59;4.40;;;3.40;;
7479;SDS011;3781;42.272;22.658;2023-06-26T05:21:25;5.73;;;3.23;;
7479;SDS011;3781;42.272;22.658;2023-06-26T05:23:53;5.27;;;2.87;;
7479;SDS011;3781;42.272;22.658;2023-06-26T05:26:24;4.97;;;3.60;;
7479;SDS011;3781;42.272;22.658;2023-06-26T05:28:52;3.73;;;2.70;;
7479;SDS011;3781;42.272;22.658;2023-06-26T05:31:19;2.90;;;2.70;;
7479;SDS011;3781;42.272;22.658;2023-06-26T05:33:46;5.03;;;3.27;;
7479;SDS011;3781;42.272;22.658;2023-06-26T05:36:14;6.63;;;3.63;;
7479;SDS011;3781;42.272;22.658;2023-06-26T05:38:43;4.20;;;2.60;;
7479;SDS011;3781;42.272;22.658;2023-06-26T05:41:10;5.03;;;3.13;;
7479;SDS011;3781;42.272;22.658;2023-06-26T05:43:38;5.03;;;2.97;;
7479;SDS011;3781;42.272;22.658;2023-06-26T05:46:05;4.43;;;3.27;;
7479;SDS011;3781;42.272;22.658;2023-06-26T05:48:32;6.03;;;3.83;;
7479;SDS011;3781;42.272;22.658;2023-06-26T05:50:59;4.93;;;2.70;;
7479;SDS011;3781;42.272;22.658;2023-06-26T05:53:26;5.40;;;3.37;;
7479;SDS011;3781;42.272;22.658;2023-06-26T05:55:55;4.73;;;3.73;;
7479;SDS011;3781;42.272;22.658;2023-06-26T05:58:23;2.87;;;2.57;;
7479;SDS011;3781;42.272;22.658;2023-06-26T06:00:54;4.60;;;2.77;;
7479;SDS011;3781;42.272;22.658;2023-06-26T06:03:20;3.17;;;2.80;;
7479;SDS011;3781;42.272;22.658;2023-06-26T06:05:47;6.10;;;3.97;;
7479;SDS011;3781;42.272;22.658;2023-06-26T06:08:14;4.27;;;3.20;;
7479;SDS011;3781;42.272;22.658;2023-06-26T06:10:41;6.90;;;3.27;;
7479;SDS011;3781;42.272;22.658;2023-06-26T06:13:09;4.83;;;3.40;;
7479;SDS011;3781;42.272;22.658;2023-06-26T06:15:36;4.73;;;3.67;;
7479;SDS011;3781;42.272;22.658;2023-06-26T06:18:04;3.47;;;2.80;;
7479;SDS011;3781;42.272;22.658;2023-06-26T06:20:32;4.07;;;3.40;;
7479;SDS011;3781;42.272;22.658;2023-06-26T06:22:59;4.43;;;3.17;;
7479;SDS011;3781;42.272;22.658;2023-06-26T06:25:26;4.77;;;4.30;;
7479;SDS011;3781;42.272;22.658;2023-06-26T06:27:53;4.23;;;3.23;;
7479;SDS011;3781;42.272;22.658;2023-06-26T06:30:20;4.17;;;3.60;;
7479;SDS011;3781;42.272;22.658;2023-06-26T06:32:46;5.47;;;3.53;;
7479;SDS011;3781;42.272;22.658;2023-06-26T06:35:17;4.90;;;2.87;;
7479;SDS011;3781;42.272;22.658;2023-06-26T06:37:44;5.03;;;3.60;;
7479;SDS011;3781;42.272;22.658;2023-06-26T06:40:11;3.87;;;3.13;;
7479;SDS011;3781;42.272;22.658;2023-06-26T06:42:38;3.33;;;3.03;;
7479;SDS011;3781;42.272;22.658;2023-06-26T06:45:05;3.53;;;2.97;;
7479;SDS011;3781;42.272;22.658;2023-06-26T06:47:33;3.87;;;3.37;;
7479;SDS011;3781;42.272;22.658;2023-06-26T06:50:00;2.63;;;2.27;;
7479;SDS011;3781;42.272;22.658;2023-06-26T06:52:34;3.40;;;2.70;;
7479;SDS011;3781;42.272;22.658;2023-06-26T06:55:02;3.17;;;2.93;;
7479;SDS011;3781;42.272;22.658;2023-06-26T06:57:31;3.30;;;2.70;;
7479;SDS011;3781;42.272;22.658;2023-06-26T07:00:01;4.10;;;2.70;;
7479;SDS011;3781;42.272;22.658;2023-06-26T07:02:29;2.53;;;2.10;;
7479;SDS011;3781;42.272;22.658;2023-06-26T07:04:56;3.70;;;2.57;;
7479;SDS011;3781;42.272;22.658;2023-06-26T07:07:23;3.10;;;2.73;;
7479;SDS011;3781;42.272;22.658;2023-06-26T07:09:51;3.27;;;2.97;;
7479;SDS011;3781;42.272;22.658;2023-06-26T07:12:18;4.10;;;3.25;;
7479;SDS011;3781;42.272;22.658;2023-06-26T07:14:44;3.23;;;2.93;;
7479;SDS011;3781;42.272;22.658;2023-06-26T07:17:11;5.45;;;3.30;;
7479;SDS011;3781;42.272;22.658;2023-06-26T07:19:38;3.63;;;2.75;;
7479;SDS011;3781;42.272;22.658;2023-06-26T07:22:04;4.13;;;2.45;;
7479;SDS011;3781;42.272;22.658;2023-06-26T07:24:31;4.07;;;2.88;;
7479;SDS011;3781;42.272;22.658;2023-06-26T07:27:00;4.18;;;3.67;;
7479;SDS011;3781;42.272;22.658;2023-06-26T07:29:27;5.53;;;3.15;;
7479;SDS011;3781;42.272;22.658;2023-06-26T07:31:53;5.47;;;3.28;;
7479;SDS011;3781;42.272;22.658;2023-06-26T07:34:20;4.30;;;3.15;;
7479;SDS011;3781;42.272;22.658;2023-06-26T07:36:47;3.10;;;2.63;;
7479;SDS011;3781;42.272;22.658;2023-06-26T07:39:14;2.90;;;2.35;;
7479;SDS011;3781;42.272;22.658;2023-06-26T07:41:41;3.97;;;3.50;;
7479;SDS011;3781;42.272;22.658;2023-06-26T07:44:09;3.73;;;3.17;;
7479;SDS011;3781;42.272;22.658;2023-06-26T07:46:36;3.60;;;3.03;;
7479;SDS011;3781;42.272;22.658;2023-06-26T07:49:03;6.00;;;3.23;;
7479;SDS011;3781;42.272;22.658;2023-06-26T07:51:29;5.97;;;3.50;;
7479;SDS011;3781;42.272;22.658;2023-06-26T07:53:56;2.57;;;2.13;;
7479;SDS011;3781;42.272;22.658;2023-06-26T07:56:23;3.80;;;2.73;;
7479;SDS011;3781;42.272;22.658;2023-06-26T07:58:49;3.57;;;2.77;;
7479;SDS011;3781;42.272;22.658;2023-06-26T08:01:18;3.07;;;2.77;;
7479;SDS011;3781;42.272;22.658;2023-06-26T08:03:45;2.73;;;1.93;;
7479;SDS011;3781;42.272;22.658;2023-06-26T08:06:11;2.87;;;2.47;;
7479;SDS011;3781;42.272;22.658;2023-06-26T08:08:38;3.67;;;3.30;;
7479;SDS011;3781;42.272;22.658;2023-06-26T08:11:05;5.07;;;2.77;;
7479;SDS011;3781;42.272;22.658;2023-06-26T08:13:32;3.07;;;2.70;;
7479;SDS011;3781;42.272;22.658;2023-06-26T08:15:58;4.17;;;2.50;;
7479;SDS011;3781;42.272;22.658;2023-06-26T08:18:27;2.63;;;2.23;;
7479;SDS011;3781;42.272;22.658;2023-06-26T08:20:54;2.67;;;2.43;;
7479;SDS011;3781;42.272;22.658;2023-06-26T08:23:21;2.77;;;2.50;;
7479;SDS011;3781;42.272;22.658;2023-06-26T08:25:48;2.10;;;1.90;;
7479;SDS011;3781;42.272;22.658;2023-06-26T08:28:15;3.17;;;2.33;;
7479;SDS011;3781;42.272;22.658;2023-06-26T08:30:41;3.87;;;2.93;;
7479;SDS011;3781;42.272;22.658;2023-06-26T08:33:08;2.50;;;2.30;;
7479;SDS011;3781;42.272;22.658;2023-06-26T08:35:38;3.57;;;2.53;;
7479;SDS011;3781;42.272;22.658;2023-06-26T08:38:05;2.50;;;2.20;;
7479;SDS011;3781;42.272;22.658;2023-06-26T08:40:33;3.93;;;2.63;;
7479;SDS011;3781;42.272;22.658;2023-06-26T08:43:01;2.67;;;2.13;;
7479;SDS011;3781;42.272;22.658;2023-06-26T08:45:29;3.03;;;2.40;;
7479;SDS011;3781;42.272;22.658;2023-06-26T08:47:56;2.93;;;2.40;;
7479;SDS011;3781;42.272;22.658;2023-06-26T08:50:27;2.23;;;2.03;;
7479;SDS011;3781;42.272;22.658;2023-06-26T08:52:59;3.80;;;2.60;;
7479;SDS011;3781;42.272;22.658;2023-06-26T08:55:32;2.67;;;1.67;;
7479;SDS011;3781;42.272;22.658;2023-06-26T08:58:02;2.70;;;2.50;;
7479;SDS011;3781;42.272;22.658;2023-06-26T09:00:29;2.50;;;2.30;;
7479;SDS011;3781;42.272;22.658;2023-06-26T09:02:56;2.60;;;2.40;;
7479;SDS011;3781;42.272;22.658;2023-06-26T09:05:23;2.73;;;1.83;;
7479;SDS011;3781;42.272;22.658;2023-06-26T09:07:52;3.70;;;2.50;;
7479;SDS011;3781;42.272;22.658;2023-06-26T09:10:22;3.20;;;2.17;;
7479;SDS011;3781;42.272;22.658;2023-06-26T09:12:48;2.80;;;1.87;;
7479;SDS011;3781;42.272;22.658;2023-06-26T09:15:16;2.60;;;2.13;;
7479;SDS011;3781;42.272;22.658;2023-06-26T09:17:45;1.88;;;1.77;;
7479;SDS011;3781;42.272;22.658;2023-06-26T09:20:14;4.18;;;2.42;;
7479;SDS011;3781;42.272;22.658;2023-06-26T09:22:42;4.43;;;2.53;;
7479;SDS011;3781;42.272;22.658;2023-06-26T09:25:09;3.33;;;2.40;;
7479;SDS011;3781;42.272;22.658;2023-06-26T09:27:37;2.25;;;2.05;;
7479;SDS011;3781;42.272;22.658;2023-06-26T09:30:05;2.70;;;2.15;;
7479;SDS011;3781;42.272;22.658;2023-06-26T09:32:33;2.65;;;2.45;;
7479;SDS011;3781;42.272;22.658;2023-06-26T09:35:01;2.47;;;2.17;;
7479;SDS011;3781;42.272;22.658;2023-06-26T09:37:29;4.30;;;2.75;;
7479;SDS011;3781;42.272;22.658;2023-06-26T09:39:56;2.72;;;2.40;;
7479;SDS011;3781;42.272;22.658;2023-06-26T09:42:23;3.35;;;2.33;;
7479;SDS011;3781;42.272;22.658;2023-06-26T09:44:51;2.55;;;2.35;;
7479;SDS011;3781;42.272;22.658;2023-06-26T09:47:19;3.45;;;2.55;;
7479;SDS011;3781;42.272;22.658;2023-06-26T09:49:46;1.98;;;1.75;;
7479;SDS011;3781;42.272;22.658;2023-06-26T09:52:13;4.55;;;2.63;;
7479;SDS011;3781;42.272;22.658;2023-06-26T09:54:41;2.08;;;1.85;;
7479;SDS011;3781;42.272;22.658;2023-06-26T09:57:10;3.58;;;2.38;;
7479;SDS011;3781;42.272;22.658;2023-06-26T09:59:37;2.40;;;2.20;;
7479;SDS011;3781;42.272;22.658;2023-06-26T10:02:06;2.55;;;2.28;;
7479;SDS011;3781;42.272;22.658;2023-06-26T10:04:34;1.48;;;1.38;;
7479;SDS011;3781;42.272;22.658;2023-06-26T10:07:01;2.50;;;1.65;;
7479;SDS011;3781;42.272;22.658;2023-06-26T10:09:30;2.47;;;1.65;;
7479;SDS011;3781;42.272;22.658;2023-06-26T10:12:00;2.00;;;1.83;;
7479;SDS011;3781;42.272;22.658;2023-06-26T10:14:31;2.22;;;1.67;;
7479;SDS011;3781;42.272;22.658;2023-06-26T10:17:01;2.50;;;1.65;;
7479;SDS011;3781;42.272;22.658;2023-06-26T10:19:33;1.63;;;1.52;;
7479;SDS011;3781;42.272;22.658;2023-06-26T10:22:02;1.48;;;1.38;;
7479;SDS011;3781;42.272;22.658;2023-06-26T10:24:31;1.40;;;1.30;;
7479;SDS011;3781;42.272;22.658;2023-06-26T10:27:02;2.42;;;1.65;;
7479;SDS011;3781;42.272;22.658;2023-06-26T10:29:31;2.08;;;1.50;;
7479;SDS011;3781;42.272;22.658;2023-06-26T10:32:00;1.70;;;1.60;;
7479;SDS011;3781;42.272;22.658;2023-06-26T10:34:31;1.75;;;1.52;;
7479;SDS011;3781;42.272;22.658;2023-06-26T10:37:02;1.48;;;1.38;;
7479;SDS011;3781;42.272;22.658;2023-06-26T10:39:45;1.38;;;1.15;;
7479;SDS011;3781;42.272;22.658;2023-06-26T10:42:14;1.23;;;1.13;;
7479;SDS011;3781;42.272;22.658;2023-06-26T10:44:42;1.65;;;1.48;;
7479;SDS011;3781;42.272;22.658;2023-06-26T10:47:09;2.33;;;1.92;;
7479;SDS011;3781;42.272;22.658;2023-06-26T10:49:36;1.67;;;0.90;;
7479;SDS011;3781;42.272;22.658;2023-06-26T10:52:06;1.38;;;1.27;;
7479;SDS011;3781;42.272;22.658;2023-06-26T10:54:34;1.05;;;1.05;;
7479;SDS011;3781;42.272;22.658;2023-06-26T10:57:02;1.63;;;1.13;;
7479;SDS011;3781;42.272;22.658;2023-06-26T10:59:30;1.02;;;0.98;;
7479;SDS011;3781;42.272;22.658;2023-06-26T11:01:58;0.93;;;0.93;;
7479;SDS011;3781;42.272;22.658;2023-06-26T11:04:38;1.27;;;1.17;;
7479;SDS011;3781;42.272;22.658;2023-06-26T11:07:17;1.65;;;1.30;;
7479;SDS011;3781;42.272;22.658;2023-06-26T11:09:55;1.20;;;1.10;;
7479;SDS011;3781;42.272;22.658;2023-06-26T11:12:36;1.52;;;1.42;;
7479;SDS011;3781;42.272;22.658;2023-06-26T11:15:06;1.48;;;1.38;;
7479;SDS011;3781;42.272;22.658;2023-06-26T11:17:34;1.98;;;1.27;;
7479;SDS011;3781;42.272;22.658;2023-06-26T11:20:02;2.30;;;1.65;;
7479;SDS011;3781;42.272;22.658;2023-06-26T11:22:32;1.17;;;1.08;;
7479;SDS011;3781;42.272;22.658;2023-06-26T11:25:02;0.85;;;0.85;;
7479;SDS011;3781;42.272;22.658;2023-06-26T11:27:31;2.97;;;1.20;;
7479;SDS011;3781;42.272;22.658;2023-06-26T11:29:59;0.80;;;0.80;;
7479;SDS011;3781;42.272;22.658;2023-06-26T11:32:27;2.42;;;1.48;;
7479;SDS011;3781;42.272;22.658;2023-06-26T11:34:54;1.40;;;1.17;;
7479;SDS011;3781;42.272;22.658;2023-06-26T11:37:21;1.50;;;1.08;;
7479;SDS011;3781;42.272;22.658;2023-06-26T11:39:50;1.13;;;0.95;;
7479;SDS011;3781;42.272;22.658;2023-06-26T11:42:17;2.42;;;1.05;;
7479;SDS011;3781;42.272;22.658;2023-06-26T11:44:44;2.55;;;2.25;;
7479;SDS011;3781;42.272;22.658;2023-06-26T11:47:15;1.50;;;1.40;;
7479;SDS011;3781;42.272;22.658;2023-06-26T11:49:43;1.30;;;1.20;;
7479;SDS011;3781;42.272;22.658;2023-06-26T11:52:10;2.03;;;1.75;;
7479;SDS011;3781;42.272;22.658;2023-06-26T11:54:38;1.70;;;1.45;;
7479;SDS011;3781;42.272;22.658;2023-06-26T11:57:06;1.67;;;1.45;;
7479;SDS011;3781;42.272;22.658;2023-06-26T11:59:33;1.50;;;1.20;;
7479;SDS011;3781;42.272;22.658;2023-06-26T12:02:05;0.88;;;0.88;;
7479;SDS011;3781;42.272;22.658;2023-06-26T12:04:33;4.07;;;1.58;;
7479;SDS011;3781;42.272;22.658;2023-06-26T12:07:02;1.38;;;1.23;;
7479;SDS011;3781;42.272;22.658;2023-06-26T12:09:32;1.67;;;1.58;;
7479;SDS011;3781;42.272;22.658;2023-06-26T12:12:00;2.83;;;1.52;;
7479;SDS011;3781;42.272;22.658;2023-06-26T12:14:30;1.48;;;1.25;;
7479;SDS011;3781;42.272;22.658;2023-06-26T12:17:03;1.63;;;1.35;;
7479;SDS011;3781;42.272;22.658;2023-06-26T12:19:31;1.70;;;1.60;;
7479;SDS011;3781;42.272;22.658;2023-06-26T12:21:58;2.47;;;1.90;;
7479;SDS011;3781;42.272;22.658;2023-06-26T12:24:25;3.30;;;1.63;;
7479;SDS011;3781;42.272;22.658;2023-06-26T12:26:53;1.67;;;1.58;;
7479;SDS011;3781;42.272;22.658;2023-06-26T12:29:24;2.10;;;1.90;;
7479;SDS011;3781;42.272;22.658;2023-06-26T12:32:01;1.63;;;1.52;;
7479;SDS011;3781;42.272;22.658;2023-06-26T12:34:30;1.25;;;1.15;;
7479;SDS011;3781;42.272;22.658;2023-06-26T12:37:00;1.38;;;1.27;;
7479;SDS011;3781;42.272;22.658;2023-06-26T12:39:29;1.55;;;1.30;;
7479;SDS011;3781;42.272;22.658;2023-06-26T12:41:57;1.85;;;1.73;;
7479;SDS011;3781;42.272;22.658;2023-06-26T12:44:28;2.00;;;1.80;;
7479;SDS011;3781;42.272;22.658;2023-06-26T12:46:58;1.77;;;1.30;;
7479;SDS011;3781;42.272;22.658;2023-06-26T12:49:29;1.50;;;1.40;;
7479;SDS011;3781;42.272;22.658;2023-06-26T12:51:57;1.52;;;1.42;;
7479;SDS011;3781;42.272;22.658;2023-06-26T12:54:24;0.98;;;0.98;;
7479;SDS011;3781;42.272;22.658;2023-06-26T12:56:51;1.10;;;1.00;;
7479;SDS011;3781;42.272;22.658;2023-06-26T12:59:18;1.38;;;1.27;;
7479;SDS011;3781;42.272;22.658;2023-06-26T13:01:45;1.48;;;1.38;;
7479;SDS011;3781;42.272;22.658;2023-06-26T13:04:14;1.90;;;1.75;;
7479;SDS011;3781;42.272;22.658;2023-06-26T13:06:41;1.17;;;1.17;;
7479;SDS011;3781;42.272;22.658;2023-06-26T13:09:08;1.85;;;1.52;;
7479;SDS011;3781;42.272;22.658;2023-06-26T13:11:36;2.20;;;1.95;;
7479;SDS011;3781;42.272;22.658;2023-06-26T13:14:03;2.10;;;1.45;;
7479;SDS011;3781;42.272;22.658;2023-06-26T13:16:30;2.17;;;1.90;;
7479;SDS011;3781;42.272;22.658;2023-06-26T13:18:57;2.47;;;1.90;;
7479;SDS011;3781;42.272;22.658;2023-06-26T13:21:26;2.55;;;1.50;;
7479;SDS011;3781;42.272;22.658;2023-06-26T13:23:54;1.50;;;1.40;;
7479;SDS011;3781;42.272;22.658;2023-06-26T13:26:24;1.30;;;1.25;;
7479;SDS011;3781;42.272;22.658;2023-06-26T13:28:51;1.83;;;1.73;;
7479;SDS011;3781;42.272;22.658;2023-06-26T13:31:18;1.50;;;1.40;;
7479;SDS011;3781;42.272;22.658;2023-06-26T13:33:47;1.58;;;1.48;;
7479;SDS011;3781;42.272;22.658;2023-06-26T13:36:22;2.30;;;1.60;;
7479;SDS011;3781;42.272;22.658;2023-06-26T13:38:51;1.52;;;1.42;;
7479;SDS011;3781;42.272;22.658;2023-06-26T13:41:20;1.08;;;0.98;;
7479;SDS011;3781;42.272;22.658;2023-06-26T13:43:48;1.65;;;1.17;;
7479;SDS011;3781;42.272;22.658;2023-06-26T13:46:15;2.13;;;1.40;;
7479;SDS011;3781;42.272;22.658;2023-06-26T13:48:42;1.98;;;1.73;;
7479;SDS011;3781;42.272;22.658;2023-06-26T13:51:09;1.73;;;1.02;;
7479;SDS011;3781;42.272;22.658;2023-06-26T13:53:36;1.63;;;1.52;;
7479;SDS011;3781;42.272;22.658;2023-06-26T13:56:04;1.73;;;1.63;;
7479;SDS011;3781;42.272;22.658;2023-06-26T13:58:31;1.63;;;1.50;;
7479;SDS011;3781;42.272;22.658;2023-06-26T14:00:58;2.15;;;2.03;;
7479;SDS011;3781;42.272;22.658;2023-06-26T14:03:26;1.88;;;1.70;;
7479;SDS011;3781;42.272;22.658;2023-06-26T14:05:53;2.35;;;2.15;;
7479;SDS011;3781;42.272;22.658;2023-06-26T14:08:20;1.75;;;1.60;;
7479;SDS011;3781;42.272;22.658;2023-06-26T14:10:47;1.35;;;1.25;;
7479;SDS011;3781;42.272;22.658;2023-06-26T14:13:15;2.00;;;1.90;;
7479;SDS011;3781;42.272;22.658;2023-06-26T14:15:41;2.25;;;2.15;;
7479;SDS011;3781;42.272;22.658;2023-06-26T14:18:09;1.70;;;1.50;;
7479;SDS011;3781;42.272;22.658;2023-06-26T14:20:36;1.58;;;1.48;;
7479;SDS011;3781;42.272;22.658;2023-06-26T14:23:03;2.22;;;2.10;;
7479;SDS011;3781;42.272;22.658;2023-06-26T14:25:30;1.67;;;1.58;;
7479;SDS011;3781;42.272;22.658;2023-06-26T14:27:57;3.30;;;2.17;;
7479;SDS011;3781;42.272;22.658;2023-06-26T14:30:26;1.90;;;1.55;;
7479;SDS011;3781;42.272;22.658;2023-06-26T14:33:01;1.90;;;1.80;;
7479;SDS011;3781;42.272;22.658;2023-06-26T14:35:28;1.70;;;1.60;;
7479;SDS011;3781;42.272;22.658;2023-06-26T14:37:55;3.30;;;2.42;;
7479;SDS011;3781;42.272;22.658;2023-06-26T14:40:22;1.67;;;1.58;;
7479;SDS011;3781;42.272;22.658;2023-06-26T14:42:49;2.13;;;1.75;;
7479;SDS011;3781;42.272;22.658;2023-06-26T14:45:15;1.67;;;1.58;;
7479;SDS011;3781;42.272;22.658;2023-06-26T14:47:43;1.70;;;1.60;;
7479;SDS011;3781;42.272;22.658;2023-06-26T14:50:10;1.77;;;1.67;;
7479;SDS011;3781;42.272;22.658;2023-06-26T14:52:37;2.13;;;2.03;;
7479;SDS011;3781;42.272;22.658;2023-06-26T14:55:04;2.72;;;2.53;;
7479;SDS011;3781;42.272;22.658;2023-06-26T14:57:31;2.38;;;1.73;;
7479;SDS011;3781;42.272;22.658;2023-06-26T14:59:58;2.05;;;1.95;;
7479;SDS011;3781;42.272;22.658;2023-06-26T15:02:25;1.98;;;1.88;;
7479;SDS011;3781;42.272;22.658;2023-06-26T15:04:56;1.50;;;1.33;;